Time;durP1;ratioP1;P1;durP2;ratioP2;P2;SDS_P1;SDS_P2;PMS_P1;PMS_P2;Temp;Humidity;BMP_temperature;BMP_pressure;BME280_temperature;BME280_humidity;BME280_pressure;Samples;Min_cycle;Max_cycle;Signal;HPM_P1;HPM_P2
2022/03/23 00:02:09;;;;;;;12.70;11.10;;;;;;;;;;5084940;28;24438;-49
2022/03/23 00:04:35;;;;;;;11.82;9.63;;;;;;;;;;5079871;28;25058;-49
2022/03/23 00:07:00;;;;;;;11.77;10.23;;;;;;;;;;5082762;28;24515;-50
2022/03/23 00:09:26;;;;;;;11.80;10.50;;;;;;;;;;5075885;28;24445;-49
2022/03/23 00:11:51;;;;;;;11.60;10.38;;;;;;;;;;5066632;28;24433;-49
2022/03/23 00:14:16;;;;;;;13.10;11.18;;;;;;;;;;5065608;28;24781;-49
2022/03/23 00:16:41;;;;;;;11.48;10.32;;;;;;;;;;5071871;28;24446;-49
2022/03/23 00:19:10;;;;;;;11.63;10.43;;;;;;;;;;5080029;28;24437;-50
2022/03/23 00:21:35;;;;;;;12.23;10.15;;;;;;;;;;5077646;28;24603;-50
2022/03/23 00:24:00;;;;;;;11.43;10.00;;;;;;;;;;5063401;28;24556;-50
2022/03/23 00:26:26;;;;;;;12.95;10.65;;;;;;;;;;5082169;28;24513;-49
2022/03/23 00:28:51;;;;;;;11.60;10.40;;;;;;;;;;5078353;28;24505;-49
2022/03/23 00:31:18;;;;;;;12.33;10.57;;;;;;;;;;5085270;28;24761;-49
2022/03/23 00:33:43;;;;;;;11.73;10.30;;;;;;;;;;5068839;28;24502;-50
2022/03/23 00:36:09;;;;;;;12.30;11.00;;;;;;;;;;5069562;28;24576;-50
2022/03/23 00:38:34;;;;;;;12.60;10.60;;;;;;;;;;5078920;28;24773;-50
2022/03/23 00:40:59;;;;;;;12.93;10.47;;;;;;;;;;5081510;28;24548;-50
2022/03/23 00:43:25;;;;;;;11.77;10.53;;;;;;;;;;5075964;28;24442;-49
2022/03/23 00:45:50;;;;;;;13.65;11.25;;;;;;;;;;5069937;28;24415;-49
2022/03/23 00:48:15;;;;;;;12.30;10.95;;;;;;;;;;5077492;28;24452;-50
2022/03/23 00:50:40;;;;;;;13.05;10.60;;;;;;;;;;5072360;28;24410;-49
2022/03/23 00:53:06;;;;;;;11.97;10.77;;;;;;;;;;5084072;28;24513;-49
2022/03/23 00:55:31;;;;;;;13.98;10.90;;;;;;;;;;5089088;28;24410;-50
2022/03/23 00:57:57;;;;;;;13.27;11.63;;;;;;;;;;5071406;28;24433;-50
2022/03/23 01:00:22;;;;;;;14.03;10.57;;;;;;;;;;5072552;28;24410;-49
2022/03/23 01:02:48;;;;;;;13.40;11.13;;;;;;;;;;5075194;28;25069;-50
2022/03/23 01:05:13;;;;;;;13.05;11.60;;;;;;;;;;5073111;28;24445;-50
2022/03/23 01:07:39;;;;;;;13.80;11.37;;;;;;;;;;5078451;28;24418;-50
2022/03/23 01:10:05;;;;;;;13.03;11.13;;;;;;;;;;5078758;28;24578;-50
2022/03/23 01:12:30;;;;;;;12.63;11.03;;;;;;;;;;5079660;28;25135;-50
2022/03/23 01:14:55;;;;;;;12.97;11.10;;;;;;;;;;5076471;28;24494;-50
2022/03/23 01:17:20;;;;;;;13.37;11.20;;;;;;;;;;5075303;28;25072;-50
2022/03/23 01:19:45;;;;;;;15.23;11.77;;;;;;;;;;5077938;28;24977;-50
2022/03/23 01:22:10;;;;;;;13.18;11.10;;;;;;;;;;5067608;28;24457;-49
2022/03/23 01:24:36;;;;;;;13.80;11.33;;;;;;;;;;5076345;28;24414;-49
2022/03/23 01:27:03;;;;;;;12.80;11.50;;;;;;;;;;5073232;28;24530;-50
2022/03/23 01:29:28;;;;;;;12.40;11.00;;;;;;;;;;5076166;28;24438;-49
2022/03/23 01:31:53;;;;;;;13.33;10.83;;;;;;;;;;5075273;28;24426;-50
2022/03/23 01:34:18;;;;;;;13.77;11.00;;;;;;;;;;5076551;28;24411;-49
2022/03/23 01:36:44;;;;;;;12.75;10.82;;;;;;;;;;5084365;28;24418;-49
2022/03/23 01:39:09;;;;;;;13.70;10.80;;;;;;;;;;5082453;28;24423;-49
2022/03/23 01:41:35;;;;;;;12.70;11.20;;;;;;;;;;5069473;28;24426;-50
2022/03/23 01:44:00;;;;;;;12.85;10.90;;;;;;;;;;5078176;28;24418;-49
2022/03/23 01:46:26;;;;;;;12.97;11.20;;;;;;;;;;5074588;28;24506;-50
2022/03/23 01:48:51;;;;;;;12.63;10.70;;;;;;;;;;5077398;28;24522;-50
2022/03/23 01:51:17;;;;;;;12.87;10.80;;;;;;;;;;5070682;28;24415;-50
2022/03/23 01:53:42;;;;;;;12.57;11.07;;;;;;;;;;5075863;28;24489;-49
2022/03/23 01:56:09;;;;;;;12.36;11.06;;;;;;;;;;5082359;28;24840;-49
2022/03/23 01:58:34;;;;;;;11.63;10.40;;;;;;;;;;5084456;28;24406;-49
2022/03/23 02:01:00;;;;;;;13.53;10.40;;;;;;;;;;5073773;28;24515;-49
2022/03/23 02:03:25;;;;;;;12.73;10.60;;;;;;;;;;5083296;28;24819;-49
2022/03/23 02:05:50;;;;;;;12.00;10.70;;;;;;;;;;5067972;28;24426;-50
2022/03/23 02:08:15;;;;;;;11.50;10.30;;;;;;;;;;5069834;28;24839;-50
2022/03/23 02:10:41;;;;;;;12.80;10.70;;;;;;;;;;5071606;28;24426;-49
2022/03/23 02:13:07;;;;;;;12.03;10.43;;;;;;;;;;5072811;28;24422;-49
2022/03/23 02:15:32;;;;;;;14.37;10.10;;;;;;;;;;5069357;28;25071;-50
2022/03/23 02:17:57;;;;;;;13.27;10.60;;;;;;;;;;5076718;28;24501;-50
2022/03/23 02:20:23;;;;;;;11.80;10.60;;;;;;;;;;5077772;28;24415;-50
2022/03/23 02:22:48;;;;;;;12.10;10.80;;;;;;;;;;5071201;28;24430;-50
2022/03/23 02:25:13;;;;;;;11.97;10.40;;;;;;;;;;5071652;28;24576;-50
2022/03/23 02:27:40;;;;;;;12.60;11.00;;;;;;;;;;5083204;28;24438;-50
2022/03/23 02:30:06;;;;;;;12.55;10.93;;;;;;;;;;5072844;28;24433;-50
2022/03/23 02:32:32;;;;;;;12.80;11.20;;;;;;;;;;5076307;28;24403;-50
2022/03/23 02:34:58;;;;;;;11.93;10.73;;;;;;;;;;5075136;28;24413;-50
2022/03/23 02:37:23;;;;;;;14.63;11.48;;;;;;;;;;5074603;28;24936;-49
2022/03/23 02:39:48;;;;;;;13.45;11.30;;;;;;;;;;5074033;28;24972;-49
2022/03/23 02:42:13;;;;;;;14.13;11.40;;;;;;;;;;5066847;28;24488;-50
2022/03/23 02:44:38;;;;;;;13.30;10.97;;;;;;;;;;5080651;28;24417;-50
2022/03/23 02:47:04;;;;;;;12.60;10.75;;;;;;;;;;5076431;28;24501;-50
2022/03/23 02:49:29;;;;;;;14.05;11.02;;;;;;;;;;5067539;28;24434;-50
2022/03/23 02:51:55;;;;;;;13.37;11.30;;;;;;;;;;5083714;28;24418;-50
2022/03/23 03:02:50;;;;;;;13.20;11.80;;;;;;;;;;5076592;28;24480;-50
2022/03/23 03:05:15;;;;;;;13.30;11.90;;;;;;;;;;5069343;28;24418;-50
2022/03/23 03:10:25;;;;;;;14.48;11.88;;;;;;;;;;5066664;28;25240;-50
2022/03/23 03:12:50;;;;;;;12.25;10.95;;;;;;;;;;5065472;28;24454;-50
2022/03/23 03:15:16;;;;;;;13.03;11.30;;;;;;;;;;5069794;28;24411;-49
2022/03/23 03:17:42;;;;;;;14.50;11.70;;;;;;;;;;5074611;28;24427;-50
2022/03/23 03:20:07;;;;;;;12.90;11.50;;;;;;;;;;5084038;28;24569;-50
2022/03/23 03:22:34;;;;;;;12.80;11.30;;;;;;;;;;5072601;28;24517;-50
2022/03/23 03:24:59;;;;;;;12.90;11.55;;;;;;;;;;5067250;28;24505;-49
2022/03/23 03:27:24;;;;;;;13.10;11.70;;;;;;;;;;5075527;28;24549;-49
2022/03/23 03:29:49;;;;;;;14.23;10.95;;;;;;;;;;5076044;28;24442;-50
2022/03/23 03:32:14;;;;;;;14.75;11.52;;;;;;;;;;5066511;28;24976;-50
2022/03/23 03:34:39;;;;;;;13.83;11.73;;;;;;;;;;5067122;28;24430;-50
2022/03/23 03:37:04;;;;;;;12.75;11.38;;;;;;;;;;5075295;28;24836;-49
2022/03/23 03:39:29;;;;;;;14.07;11.68;;;;;;;;;;5084554;28;24509;-50
2022/03/23 03:41:55;;;;;;;12.60;11.30;;;;;;;;;;5071033;28;24413;-49
2022/03/23 03:44:20;;;;;;;13.83;11.60;;;;;;;;;;5073948;28;24488;-49
2022/03/23 03:46:46;;;;;;;14.20;11.30;;;;;;;;;;5079305;28;24426;-49
2022/03/23 03:49:11;;;;;;;13.03;11.63;;;;;;;;;;5066225;28;24438;-49
2022/03/23 03:51:36;;;;;;;12.32;11.02;;;;;;;;;;5067945;28;24967;-50
2022/03/23 03:54:01;;;;;;;15.48;11.90;;;;;;;;;;5085230;28;24402;-49
2022/03/23 03:56:26;;;;;;;13.20;11.80;;;;;;;;;;5078632;28;24498;-49
2022/03/23 03:58:53;;;;;;;16.92;12.15;;;;;;;;;;5074636;28;24953;-50
2022/03/23 04:01:18;;;;;;;14.50;12.48;;;;;;;;;;5070531;28;24463;-50
2022/03/23 04:03:43;;;;;;;14.55;12.15;;;;;;;;;;5075123;28;24577;-50
2022/03/23 04:06:08;;;;;;;13.70;11.40;;;;;;;;;;5069909;28;24422;-49
2022/03/23 04:08:34;;;;;;;13.63;12.00;;;;;;;;;;5076241;28;24438;-50
2022/03/23 04:11:00;;;;;;;14.90;11.95;;;;;;;;;;5067288;28;24418;-50
2022/03/23 04:13:25;;;;;;;13.00;11.60;;;;;;;;;;5066350;28;24672;-49
2022/03/23 04:15:50;;;;;;;13.50;11.63;;;;;;;;;;5071421;28;24403;-50
2022/03/23 04:18:16;;;;;;;14.80;12.60;;;;;;;;;;5076122;28;24550;-49
2022/03/23 04:20:41;;;;;;;15.17;12.57;;;;;;;;;;5075228;28;24569;-49
2022/03/23 04:23:06;;;;;;;15.05;12.13;;;;;;;;;;5065625;28;24506;-49
2022/03/23 04:25:31;;;;;;;16.70;12.00;;;;;;;;;;5086046;28;24418;-49
2022/03/23 04:27:57;;;;;;;18.05;12.00;;;;;;;;;;5073545;28;24889;-50
2022/03/23 04:30:23;;;;;;;13.83;11.30;;;;;;;;;;5072184;28;24565;-49
2022/03/23 04:32:50;;;;;;;13.93;12.02;;;;;;;;;;5074745;28;24518;-49
2022/03/23 04:35:16;;;;;;;14.65;11.70;;;;;;;;;;5085815;28;25030;-50
2022/03/23 04:37:42;;;;;;;13.20;11.70;;;;;;;;;;5076554;28;24967;-50
2022/03/23 04:40:07;;;;;;;15.05;12.05;;;;;;;;;;5081469;28;24410;-49
2022/03/23 04:42:33;;;;;;;13.38;11.98;;;;;;;;;;5085802;28;24909;-50
2022/03/23 04:44:58;;;;;;;12.83;11.53;;;;;;;;;;5084993;28;24421;-49
2022/03/23 04:47:23;;;;;;;14.00;11.50;;;;;;;;;;5066328;28;24415;-49
2022/03/23 04:49:48;;;;;;;14.32;12.35;;;;;;;;;;5069753;28;24430;-50
2022/03/23 04:52:14;;;;;;;13.57;12.07;;;;;;;;;;5069086;28;24422;-50
2022/03/23 04:54:39;;;;;;;13.30;12.00;;;;;;;;;;5071442;28;24952;-50
2022/03/23 04:57:04;;;;;;;14.87;11.60;;;;;;;;;;5075557;28;24882;-49
2022/03/23 04:59:29;;;;;;;15.15;12.63;;;;;;;;;;5086090;28;24405;-50
2022/03/23 05:01:54;;;;;;;15.65;13.07;;;;;;;;;;5071424;28;24419;-49
2022/03/23 05:04:20;;;;;;;16.05;13.15;;;;;;;;;;5069781;28;25003;-50
2022/03/23 05:06:45;;;;;;;14.33;12.27;;;;;;;;;;5071892;28;24446;-49
2022/03/23 05:09:10;;;;;;;13.80;12.07;;;;;;;;;;5069393;28;25150;-49
2022/03/23 05:11:35;;;;;;;13.30;11.90;;;;;;;;;;5073995;28;24547;-49
2022/03/23 05:14:01;;;;;;;14.80;12.63;;;;;;;;;;5087418;28;24479;-50
2022/03/23 05:16:26;;;;;;;14.05;11.85;;;;;;;;;;5081031;28;24995;-49
2022/03/23 05:18:51;;;;;;;14.32;11.82;;;;;;;;;;5074493;28;24978;-50
2022/03/23 05:21:16;;;;;;;14.88;12.20;;;;;;;;;;5070467;28;24516;-50
2022/03/23 05:23:42;;;;;;;14.90;12.73;;;;;;;;;;5071065;28;24518;-50
2022/03/23 05:26:07;;;;;;;17.20;13.43;;;;;;;;;;5071525;28;24434;-51
2022/03/23 05:28:32;;;;;;;15.87;13.40;;;;;;;;;;5073760;28;25085;-50
2022/03/23 05:30:57;;;;;;;15.23;12.95;;;;;;;;;;5076120;28;24415;-49
2022/03/23 05:33:22;;;;;;;14.65;13.02;;;;;;;;;;5074969;28;24506;-50
2022/03/23 05:35:47;;;;;;;14.52;12.98;;;;;;;;;;5081821;28;24419;-49
2022/03/23 05:38:12;;;;;;;15.10;13.27;;;;;;;;;;5068961;28;24862;-51
2022/03/23 05:40:38;;;;;;;14.20;12.63;;;;;;;;;;5065586;28;24460;-50
2022/03/23 05:43:03;;;;;;;14.65;13.00;;;;;;;;;;5064724;28;24419;-50
2022/03/23 05:45:29;;;;;;;14.55;12.20;;;;;;;;;;5067517;28;24422;-50
2022/03/23 05:47:56;;;;;;;16.25;12.70;;;;;;;;;;5072767;28;24449;-49
2022/03/23 05:50:21;;;;;;;14.35;12.10;;;;;;;;;;5079868;28;24503;-50
2022/03/23 05:52:46;;;;;;;15.70;12.37;;;;;;;;;;5070551;28;24418;-50
2022/03/23 05:55:11;;;;;;;14.95;12.80;;;;;;;;;;5065999;28;24421;-50
2022/03/23 05:57:37;;;;;;;16.60;13.13;;;;;;;;;;5066935;28;24828;-49
2022/03/23 06:00:03;;;;;;;16.25;12.90;;;;;;;;;;5068830;28;24418;-50
2022/03/23 06:02:28;;;;;;;13.77;12.38;;;;;;;;;;5073062;28;24513;-50
2022/03/23 06:04:53;;;;;;;15.95;13.45;;;;;;;;;;5085812;28;24491;-49
2022/03/23 06:07:18;;;;;;;15.30;12.93;;;;;;;;;;5082949;28;24479;-50
2022/03/23 06:09:44;;;;;;;14.10;12.60;;;;;;;;;;5078689;28;24434;-50
2022/03/23 06:12:12;;;;;;;14.73;12.35;;;;;;;;;;5074680;28;24824;-49
2022/03/23 06:14:38;;;;;;;14.68;12.63;;;;;;;;;;5068934;28;25078;-49
2022/03/23 06:17:03;;;;;;;16.58;13.30;;;;;;;;;;5067684;28;24422;-49
2022/03/23 06:19:28;;;;;;;16.93;13.93;;;;;;;;;;5081253;28;24662;-50
2022/03/23 06:21:53;;;;;;;15.40;13.90;;;;;;;;;;5068461;28;24421;-50
2022/03/23 06:24:19;;;;;;;16.13;12.80;;;;;;;;;;5067775;28;24443;-50
2022/03/23 06:26:44;;;;;;;14.70;13.20;;;;;;;;;;5068173;28;24480;-49
2022/03/23 06:29:09;;;;;;;15.38;12.50;;;;;;;;;;5067867;28;24464;-50
2022/03/23 06:31:34;;;;;;;16.30;13.87;;;;;;;;;;5067827;28;24410;-50
2022/03/23 06:34:00;;;;;;;15.05;12.70;;;;;;;;;;5086470;28;24410;-49
2022/03/23 06:36:25;;;;;;;14.50;12.80;;;;;;;;;;5087581;28;24391;-51
2022/03/23 06:38:51;;;;;;;13.90;12.30;;;;;;;;;;5088302;28;24394;-49
2022/03/23 06:41:16;;;;;;;14.90;12.60;;;;;;;;;;5087921;28;24473;-50
2022/03/23 06:43:41;;;;;;;16.00;13.65;;;;;;;;;;5075300;28;24475;-50
2022/03/23 06:46:07;;;;;;;17.40;13.60;;;;;;;;;;5067848;28;24483;-49
2022/03/23 06:48:32;;;;;;;15.90;13.55;;;;;;;;;;5067145;28;24425;-49
2022/03/23 06:50:57;;;;;;;16.70;15.00;;;;;;;;;;5067202;28;24488;-50
2022/03/23 06:53:22;;;;;;;15.93;14.23;;;;;;;;;;5072570;28;24406;-50
2022/03/23 06:55:47;;;;;;;15.77;13.50;;;;;;;;;;5087557;28;24825;-50
2022/03/23 06:58:12;;;;;;;17.87;14.20;;;;;;;;;;5087510;28;24390;-50
2022/03/23 07:00:39;;;;;;;15.60;13.70;;;;;;;;;;5087230;28;24390;-50
2022/03/23 07:03:05;;;;;;;15.80;14.00;;;;;;;;;;5087697;28;24401;-50
2022/03/23 07:05:30;;;;;;;16.17;13.93;;;;;;;;;;5079677;28;24979;-50
2022/03/23 07:10:39;;;;;;;17.60;14.40;;;;;;;;;;5069435;28;24807;-50
2022/03/23 07:13:04;;;;;;;15.57;13.97;;;;;;;;;;5068230;28;25033;-50
2022/03/23 07:15:30;;;;;;;16.10;14.40;;;;;;;;;;5074241;28;24468;-50
2022/03/23 07:18:01;;;;;;;17.30;15.00;;;;;;;;;;5065878;28;24559;-49
2022/03/23 07:20:27;;;;;;;16.70;14.65;;;;;;;;;;5067991;28;24421;-50
2022/03/23 07:22:52;;;;;;;16.50;14.80;;;;;;;;;;5073726;28;24773;-49
2022/03/23 07:25:17;;;;;;;15.80;14.20;;;;;;;;;;5066925;28;24442;-51
2022/03/23 07:27:42;;;;;;;16.40;14.40;;;;;;;;;;5064237;28;25028;-50
2022/03/23 07:30:07;;;;;;;16.07;14.37;;;;;;;;;;5077572;28;24480;-49
2022/03/23 07:32:33;;;;;;;16.70;15.00;;;;;;;;;;5085990;28;24411;-50
2022/03/23 07:34:58;;;;;;;17.50;14.87;;;;;;;;;;5087041;28;24391;-50
2022/03/23 07:37:23;;;;;;;17.05;14.45;;;;;;;;;;5087134;28;24379;-50
2022/03/23 07:39:48;;;;;;;17.83;15.50;;;;;;;;;;5086786;28;24824;-50
2022/03/23 07:42:14;;;;;;;15.40;13.80;;;;;;;;;;5072424;28;24425;-51
2022/03/23 07:44:39;;;;;;;17.13;15.35;;;;;;;;;;5066398;28;24402;-50
2022/03/23 07:47:10;;;;;;;16.03;14.17;;;;;;;;;;5064996;28;24395;-51
2022/03/23 07:49:35;;;;;;;16.23;14.23;;;;;;;;;;5066480;28;24522;-50
2022/03/23 07:52:02;;;;;;;16.20;14.50;;;;;;;;;;5073862;28;25141;-50
2022/03/23 07:54:27;;;;;;;16.40;14.70;;;;;;;;;;5086393;28;25042;-50
2022/03/23 07:56:52;;;;;;;16.50;14.80;;;;;;;;;;5086590;28;24477;-50
2022/03/23 07:59:17;;;;;;;17.73;14.83;;;;;;;;;;5086701;28;24908;-51
2022/03/23 08:01:42;;;;;;;18.90;14.43;;;;;;;;;;5084863;28;24390;-50
2022/03/23 08:04:08;;;;;;;16.13;14.43;;;;;;;;;;5086234;28;24411;-50
2022/03/23 08:06:35;;;;;;;16.40;14.50;;;;;;;;;;5086488;28;24422;-50
2022/03/23 08:09:01;;;;;;;17.70;14.85;;;;;;;;;;5086596;28;24495;-50
2022/03/23 08:11:26;;;;;;;16.30;14.50;;;;;;;;;;5084501;28;24924;-50
2022/03/23 08:13:52;;;;;;;17.63;14.43;;;;;;;;;;5083478;28;24468;-49
2022/03/23 08:16:17;;;;;;;16.80;15.10;;;;;;;;;;5086374;28;24788;-51
2022/03/23 08:18:42;;;;;;;15.80;13.70;;;;;;;;;;5074680;28;24484;-50
2022/03/23 08:21:07;;;;;;;16.60;14.90;;;;;;;;;;5066163;28;24441;-50
2022/03/23 08:23:32;;;;;;;14.73;13.23;;;;;;;;;;5066409;28;24472;-51
2022/03/23 08:25:57;;;;;;;15.10;13.50;;;;;;;;;;5066541;28;25183;-51
2022/03/23 08:28:23;;;;;;;15.87;13.80;;;;;;;;;;5069504;28;25338;-50
2022/03/23 08:30:48;;;;;;;16.08;14.48;;;;;;;;;;5086068;28;24752;-51
2022/03/23 08:33:13;;;;;;;15.33;13.83;;;;;;;;;;5086259;28;24390;-50
2022/03/23 08:35:39;;;;;;;14.70;13.20;;;;;;;;;;5086347;28;24459;-50
2022/03/23 08:38:04;;;;;;;14.30;12.80;;;;;;;;;;5088169;28;25223;-50
2022/03/23 08:40:29;;;;;;;13.93;12.53;;;;;;;;;;5071966;28;24422;-50
2022/03/23 08:42:55;;;;;;;13.27;11.97;;;;;;;;;;5069956;28;24394;-50
2022/03/23 08:45:21;;;;;;;14.60;13.10;;;;;;;;;;5070143;28;24503;-51
2022/03/23 08:47:47;;;;;;;13.70;12.30;;;;;;;;;;5069936;28;24945;-51
2022/03/23 08:50:13;;;;;;;14.17;12.67;;;;;;;;;;5069579;28;24423;-51
2022/03/23 08:52:38;;;;;;;14.53;11.80;;;;;;;;;;5069420;28;24410;-50
2022/03/23 08:55:04;;;;;;;15.85;14.15;;;;;;;;;;5069980;28;24488;-51
2022/03/23 08:57:30;;;;;;;14.75;13.02;;;;;;;;;;5078657;28;24449;-51
2022/03/23 08:59:55;;;;;;;15.13;12.27;;;;;;;;;;5089895;28;24408;-51
2022/03/23 09:02:20;;;;;;;14.20;12.70;;;;;;;;;;5089977;28;24815;-51
2022/03/23 09:04:45;;;;;;;14.27;12.87;;;;;;;;;;5087538;28;24413;-51
2022/03/23 09:07:10;;;;;;;14.67;13.13;;;;;;;;;;5069840;28;24482;-50
2022/03/23 09:09:35;;;;;;;14.87;13.40;;;;;;;;;;5069286;28;24418;-51
2022/03/23 09:12:01;;;;;;;12.98;11.68;;;;;;;;;;5073240;28;24874;-50
2022/03/23 09:14:26;;;;;;;14.13;12.73;;;;;;;;;;5090032;28;24791;-51
2022/03/23 09:16:51;;;;;;;13.68;12.18;;;;;;;;;;5070684;28;24418;-51
2022/03/23 09:19:20;;;;;;;14.50;13.10;;;;;;;;;;5069422;28;24753;-51
2022/03/23 09:21:45;;;;;;;14.18;12.77;;;;;;;;;;5069426;28;24395;-50
2022/03/23 09:24:10;;;;;;;13.95;12.55;;;;;;;;;;5069148;28;24418;-51
2022/03/23 09:26:36;;;;;;;13.93;12.43;;;;;;;;;;5068671;28;24435;-51
2022/03/23 09:29:01;;;;;;;14.07;12.70;;;;;;;;;;5069667;28;24409;-51
2022/03/23 09:31:26;;;;;;;15.87;14.17;;;;;;;;;;5068718;28;24824;-51
2022/03/23 09:33:51;;;;;;;13.90;12.60;;;;;;;;;;5067226;28;24387;-51
2022/03/23 09:39:01;;;;;;;15.10;13.50;;;;;;;;;;5089496;28;24443;-51
2022/03/23 09:41:27;;;;;;;14.15;12.75;;;;;;;;;;5089012;28;24801;-51
2022/03/23 09:43:52;;;;;;;13.57;12.17;;;;;;;;;;5088678;28;24406;-51
2022/03/23 09:46:18;;;;;;;14.00;12.60;;;;;;;;;;5088827;28;24397;-51
2022/03/23 09:48:43;;;;;;;14.27;12.47;;;;;;;;;;5086708;28;24513;-51
2022/03/23 09:51:09;;;;;;;16.65;13.85;;;;;;;;;;5088293;28;24462;-51
2022/03/23 09:53:34;;;;;;;13.50;12.13;;;;;;;;;;5088564;28;25050;-50
2022/03/23 09:56:01;;;;;;;18.77;13.50;;;;;;;;;;5088806;28;24593;-51
2022/03/23 09:58:26;;;;;;;14.15;12.75;;;;;;;;;;5087415;28;24450;-51
2022/03/23 10:00:52;;;;;;;14.70;13.20;;;;;;;;;;5088342;28;24540;-51
2022/03/23 10:03:36;;;;;;;14.43;13.02;;;;;;;;;;5088954;28;24577;-50
2022/03/23 10:06:01;;;;;;;14.30;12.90;;;;;;;;;;5088989;28;24406;-51
2022/03/23 10:08:38;;;;;;;13.88;12.48;;;;;;;;;;5086879;28;24418;-51
2022/03/23 10:11:22;;;;;;;15.07;13.48;;;;;;;;;;5088567;28;24408;-51
2022/03/23 10:14:06;;;;;;;15.23;13.63;;;;;;;;;;5087934;28;24458;-51
2022/03/23 10:16:52;;;;;;;17.03;15.23;;;;;;;;;;5088603;28;24403;-49
2022/03/23 10:19:17;;;;;;;21.23;14.80;;;;;;;;;;5086214;28;25040;-50
2022/03/23 10:21:43;;;;;;;14.40;13.00;;;;;;;;;;5087920;28;24541;-50
2022/03/23 10:24:08;;;;;;;16.02;14.40;;;;;;;;;;5088497;28;24398;-49
2022/03/23 10:26:36;;;;;;;16.08;14.48;;;;;;;;;;5087778;28;24434;-49
2022/03/23 10:29:02;;;;;;;17.05;14.05;;;;;;;;;;5086100;28;24418;-49
2022/03/23 10:31:28;;;;;;;18.20;14.50;;;;;;;;;;5088061;28;24455;-50
2022/03/23 10:33:59;;;;;;;15.93;14.33;;;;;;;;;;5087583;28;24740;-50
2022/03/23 10:36:27;;;;;;;17.33;14.40;;;;;;;;;;5087847;28;24394;-49
2022/03/23 10:38:58;;;;;;;16.90;14.30;;;;;;;;;;5087891;28;24509;-50
2022/03/23 10:41:25;;;;;;;16.10;14.00;;;;;;;;;;5085968;28;24472;-50
2022/03/23 10:43:50;;;;;;;16.73;14.30;;;;;;;;;;5087392;28;24983;-50
2022/03/23 10:46:17;;;;;;;14.55;13.15;;;;;;;;;;5087620;28;24394;-50
2022/03/23 10:48:51;;;;;;;14.18;12.77;;;;;;;;;;5087740;28;24417;-50
2022/03/23 10:51:24;;;;;;;14.68;13.10;;;;;;;;;;5085470;28;24972;-50
2022/03/23 10:53:50;;;;;;;14.80;13.30;;;;;;;;;;5087795;28;24390;-50
2022/03/23 10:56:15;;;;;;;14.68;13.27;;;;;;;;;;5087764;28;24792;-50
2022/03/23 10:58:41;;;;;;;14.87;13.47;;;;;;;;;;5087669;28;24409;-50
2022/03/23 11:01:07;;;;;;;14.87;13.00;;;;;;;;;;5085522;28;24517;-51
2022/03/23 11:03:35;;;;;;;13.43;12.05;;;;;;;;;;5087505;28;24398;-50
2022/03/23 11:06:01;;;;;;;14.70;13.30;;;;;;;;;;5087174;28;24940;-50
2022/03/23 11:08:26;;;;;;;14.70;13.10;;;;;;;;;;5087719;28;24405;-50
2022/03/23 11:16:35;;;;;;;14.90;13.40;;;;;;;;;;5067326;28;24374;-51
2022/03/23 11:19:10;;;;;;;13.63;12.23;;;;;;;;;;5066927;28;24410;-50
2022/03/23 11:21:54;;;;;;;16.67;14.30;;;;;;;;;;5067526;28;24745;-50
2022/03/23 11:24:19;;;;;;;14.70;13.20;;;;;;;;;;5066352;28;24921;-50
2022/03/23 11:26:44;;;;;;;15.90;14.40;;;;;;;;;;5067103;28;24434;-50
2022/03/23 11:29:09;;;;;;;15.40;13.90;;;;;;;;;;5066870;28;24458;-50
2022/03/23 11:31:36;;;;;;;13.95;12.55;;;;;;;;;;5065969;28;24434;-50
2022/03/23 11:34:02;;;;;;;15.43;13.93;;;;;;;;;;5070205;28;24498;-50
2022/03/23 11:36:28;;;;;;;16.50;14.70;;;;;;;;;;5066750;28;24418;-51
2022/03/23 11:38:53;;;;;;;15.23;13.63;;;;;;;;;;5066793;28;24401;-51
2022/03/23 11:41:19;;;;;;;16.05;14.45;;;;;;;;;;5067341;28;24383;-50
2022/03/23 11:43:44;;;;;;;14.70;13.20;;;;;;;;;;5070910;28;24780;-51
2022/03/23 11:46:10;;;;;;;14.60;13.00;;;;;;;;;;5087201;28;25386;-51
2022/03/23 11:48:35;;;;;;;14.85;13.35;;;;;;;;;;5087642;28;24417;-50
2022/03/23 11:51:23;;;;;;;16.23;13.50;;;;;;;;;;5086598;28;24791;-53
2022/03/23 11:53:48;;;;;;;13.60;12.30;;;;;;;;;;5086699;28;24359;-51
2022/03/23 11:56:21;;;;;;;14.32;12.82;;;;;;;;;;5067104;28;25004;-51
2022/03/23 11:58:46;;;;;;;14.95;13.38;;;;;;;;;;5066716;28;24481;-50
2022/03/23 12:01:13;;;;;;;14.88;13.38;;;;;;;;;;5066761;28;24494;-50
2022/03/23 12:03:46;;;;;;;15.32;12.75;;;;;;;;;;5066356;28;24754;-50
2022/03/23 12:06:13;;;;;;;14.07;12.68;;;;;;;;;;5067239;28;24492;-50
2022/03/23 12:08:49;;;;;;;13.00;11.70;;;;;;;;;;5071439;28;24517;-50
2022/03/23 12:11:49;;;;;;;12.80;11.47;;;;;;;;;;5066617;28;24406;-50
2022/03/23 12:14:22;;;;;;;12.85;11.45;;;;;;;;;;5027063;28;24934;-50
2022/03/23 12:16:50;;;;;;;13.95;12.50;;;;;;;;;;5078451;28;24425;-51
2022/03/23 12:19:25;;;;;;;14.43;12.93;;;;;;;;;;5076517;28;24489;-50
2022/03/23 12:22:05;;;;;;;13.52;12.23;;;;;;;;;;5070014;28;24406;-50
2022/03/23 12:24:39;;;;;;;13.60;12.20;;;;;;;;;;5069992;28;24924;-50
2022/03/23 12:27:11;;;;;;;14.93;13.32;;;;;;;;;;5070137;28;24530;-50
2022/03/23 12:29:39;;;;;;;15.30;13.65;;;;;;;;;;5070191;28;24434;-50
2022/03/23 12:32:06;;;;;;;15.20;13.60;;;;;;;;;;5086320;28;24414;-50
2022/03/23 12:34:32;;;;;;;14.10;12.70;;;;;;;;;;5090530;28;24386;-49
2022/03/23 12:37:06;;;;;;;13.70;12.30;;;;;;;;;;5090164;28;24401;-50
2022/03/23 12:39:33;;;;;;;15.00;13.50;;;;;;;;;;5080951;28;25004;-50
2022/03/23 12:42:15;;;;;;;15.20;13.60;;;;;;;;;;5069868;28;24409;-50
2022/03/23 12:44:41;;;;;;;14.60;13.20;;;;;;;;;;5070272;28;24929;-50
2022/03/23 12:47:07;;;;;;;15.27;13.63;;;;;;;;;;5070150;28;24429;-49
2022/03/23 12:58:28;;;;;;;16.60;14.90;;;;;;;;;;5073841;28;24757;-50
2022/03/23 13:00:55;;;;;;;16.05;14.43;;;;;;;;;;5089873;28;24980;-49
2022/03/23 13:03:20;;;;;;;15.80;14.10;;;;;;;;;;5089755;28;24911;-50
2022/03/23 13:05:57;;;;;;;15.60;13.95;;;;;;;;;;5089784;28;24443;-49
2022/03/23 13:08:33;;;;;;;16.75;15.05;;;;;;;;;;5087487;28;24419;-50
2022/03/23 13:10:58;;;;;;;16.40;14.75;;;;;;;;;;5090105;28;24394;-49
2022/03/23 13:13:23;;;;;;;16.13;14.43;;;;;;;;;;5089503;28;24402;-50
2022/03/23 13:15:49;;;;;;;16.33;14.73;;;;;;;;;;5089513;28;24481;-50
2022/03/23 13:18:14;;;;;;;17.52;15.77;;;;;;;;;;5089013;28;24777;-50
2022/03/23 13:20:48;;;;;;;18.17;16.30;;;;;;;;;;5088047;28;24441;-50
2022/03/23 13:23:17;;;;;;;18.67;16.67;;;;;;;;;;5087306;28;24510;-50
2022/03/23 13:25:42;;;;;;;18.60;16.70;;;;;;;;;;5088362;28;24753;-51
2022/03/23 13:28:13;;;;;;;19.02;17.02;;;;;;;;;;5089540;28;24414;-50
2022/03/23 13:30:38;;;;;;;18.75;16.75;;;;;;;;;;5089585;28;24445;-50
2022/03/23 13:33:07;;;;;;;21.30;18.03;;;;;;;;;;5084922;28;24442;-50
2022/03/23 13:35:40;;;;;;;20.17;18.17;;;;;;;;;;5089009;28;24437;-50
2022/03/23 13:38:07;;;;;;;20.60;18.67;;;;;;;;;;5089040;28;24490;-50
2022/03/23 13:43:19;;;;;;;21.55;19.25;;;;;;;;;;5089279;28;24398;-50
2022/03/23 13:43:19;;;;;;;22.25;19.85;;;;;;;;;;5086917;28;24464;-49
2022/03/23 13:45:56;;;;;;;20.87;18.90;;;;;;;;;;5071293;28;24411;-50
2022/03/23 13:48:21;;;;;;;22.48;20.10;;;;;;;;;;5081045;28;24475;-50
2022/03/23 13:50:51;;;;;;;21.30;19.10;;;;;;;;;;5071339;28;24476;-50
2022/03/23 13:53:17;;;;;;;21.33;19.13;;;;;;;;;;5084902;28;24460;-49
2022/03/23 13:55:46;;;;;;;21.70;19.10;;;;;;;;;;5088964;28;24471;-50
2022/03/23 13:58:11;;;;;;;20.98;18.80;;;;;;;;;;5088325;28;24962;-51
2022/03/23 14:00:37;;;;;;;21.58;19.38;;;;;;;;;;5088859;28;24502;-50
2022/03/23 14:03:02;;;;;;;20.70;18.60;;;;;;;;;;5085289;28;24765;-50
2022/03/23 14:05:32;;;;;;;20.77;18.65;;;;;;;;;;5088624;28;24410;-50
2022/03/23 14:07:58;;;;;;;19.85;17.75;;;;;;;;;;5088589;28;24402;-50
2022/03/23 14:10:31;;;;;;;20.30;18.20;;;;;;;;;;5088925;28;24834;-50
2022/03/23 14:12:57;;;;;;;20.70;18.60;;;;;;;;;;5088400;28;24386;-50
2022/03/23 14:15:22;;;;;;;21.70;18.70;;;;;;;;;;5069404;28;24422;-50
2022/03/23 14:17:47;;;;;;;22.48;20.17;;;;;;;;;;5068323;28;24429;-50
2022/03/23 14:20:12;;;;;;;19.70;17.60;;;;;;;;;;5070517;28;24423;-50
2022/03/23 14:22:38;;;;;;;20.38;17.65;;;;;;;;;;5073890;28;24430;-50
2022/03/23 14:25:04;;;;;;;21.97;18.13;;;;;;;;;;5067804;28;24945;-50
2022/03/23 14:27:33;;;;;;;21.58;19.38;;;;;;;;;;5067758;28;24455;-49
2022/03/23 14:30:08;;;;;;;20.77;18.67;;;;;;;;;;5067883;28;24416;-49
2022/03/23 14:32:37;;;;;;;22.25;18.50;;;;;;;;;;5068344;28;24478;-50
2022/03/23 14:35:03;;;;;;;22.40;20.10;;;;;;;;;;5067543;28;24912;-49
2022/03/23 14:37:35;;;;;;;23.20;20.08;;;;;;;;;;5067726;28;24454;-48
2022/03/23 14:40:01;;;;;;;21.80;19.60;;;;;;;;;;5067568;28;24390;-49
2022/03/23 14:42:31;;;;;;;22.30;19.65;;;;;;;;;;5082028;28;24421;-48
2022/03/23 14:44:59;;;;;;;22.65;20.17;;;;;;;;;;5087948;28;24407;-50